Low Moor, VA

11:06 AM EST on December 10, 2016 (GMT -0500)
Valley Ridge | | Change Station

Elev 1201 ft 37.78 °N, 79.92 °W | Updated 32 seconds ago

Clear
Clear
28.9 °F
Feels Like 29 °F
N
2.9
Wind Variable Wind from WSW
Gusts 4.9 mph

Today
High -- | Low -- °F
--% Chance of Precip.
Yesterday
High -- | Low -- °F
Precip. -- in
Pressure 30.44 in
Visibility 10.0 miles
Clouds Scattered Clouds 2200 ft
Overcast 10000 ft
Windchill 29 °F
Dew Point 8 °F
Humidity 41%
Rainfall 0.00 in
Snow Depth Not available.
7:24 AM 5:00 PM
Waxing Gibbous, 84% visible
METAR KLWB 101555Z AUTO 25006KT 10SM SCT022 OVC100 M06/M12 A3044 RMK AO2 T10571118
Pressure 30.44 in
Visibility 10.0 miles
Clouds Scattered Clouds 2200 ft
Overcast 10000 ft
Windchill 29 °F
Dew Point 8 °F
Humidity 41%
Rainfall 0.00 in
Snow Depth Not available.
7:24 AM 5:00 PM
Waxing Gibbous, 84% visible
METAR KLWB 101555Z AUTO 25006KT 10SM SCT022 OVC100 M06/M12 A3044 RMK AO2 T10571118

10-Day Weather Forecast

Almanac

Astronomy

Dec. 10, 2016 Rise Set
Actual Time
Civil Twilight
Nautical Twilight
Astronomical Twilight
Moon
Length of Visible Light
Length of Day
Tomorrow will be .
, % of the Moon is Illuminated

Today's Extremes

State Highs State Lows

Community

WunderPhotos

Upload Photos

1,956,569 photos uploaded!

WunderBlog® & News

Nearby

Air Quality

  Air Quality AQ Index Pollutant
Not available.

Snow Depth

Station Depth Elevation

Earthquake Activity

City Distance Mag. Time & Date
Minimum magnitude displayed is 2.5.

Coastal Water Temperatures

Place Temperature

Stations

Nearby Weather Stations

Station Location Temp. Windchill Dew Point Humidity Wind Precip. Elev Updated Type
                   

Watches & Warnings

There are currently no watches in effect.